Moorea Temae Airport

NTTM · Îles du Vent, French Polynesia

METAR NTTM · Moorea Airport

23 六月 09:30 LT
16m
罗盘
风向 的 风向 190° Moorea Airport 12/30
风: 14 kt, 4 beaufort

8 kt

11 kt
改变
0 ft 5.000 10.000 15.000 20.000
Cloud Cloud
FEW 2.300
Cloud Cloud Cloud Cloud Cloud Cloud
BKN 18.000
METAR NTAA 231930Z 19014KT 9999 FEW023 BKN180 27/21 Q1014 NOSIG

METAR Moorea Airport - NTTM/MOZ

Moorea Airport是,French Polynesia中的中型机场。 该机场位于纬度-17,48969和经度-149,76179。 该机场有一条跑道: 12/30. 本场的ICAO机场代码为NTTM。 该机场的IATA代码为MOZ。 机场在Tahiti FIR中。

该航空气象观测是针对Faa'a International Airport在2024年6月23日 09:30, 当地时间进行的。

机场观察

风向为190°,速度为14 kt。

可见度为10 km 或者更多。

有几云在2.300 ft的高度 和 碎云在18.000 ft的高度。 破损或更高的上限为18.000 ft。

温度和风寒是27 °C。 热指数为29。 露点为21 °C,相对湿度为70%。 海平面上的气压为1014 hPa (QNH)。

白天

今天,太阳从06:28升起,在17:34降落。 这适用于Moorea Airport,世界夏令时可能有所不同。 当地时间与世界标准时间之间的时差为-10 小时。 夏令时目前正在进行中。

公司介绍

在这个机场,你可以找到跳伞中心。 本场上唯一已知的公司是Skydive Tahiti Parachutisme。

体会

到Vliegles.nl去找飞行课程,跳伞和其他飞行体验。 浏览页面,了解Moorea Airport附近所有可用的活动。 你也可以使用搜索功能来寻找你所在地附近的特定飞行课程、跳伞或其他飞行体验。

跑道

Id 标题 侧风 逆风 侧风 %
12/30 135°-315° 11 kt 8 kt 82 %

逆风成分最大的方向会被突出显示,并用于横风计算。 这并不一定意味着这个方向在使用。

乌云

2.300 ft FEW 几云
18.000 ft BKN 碎云

温度 & 天气

温度 27 °C
露点 21 °C
相对湿度 70%
热度指数 29 °C
Kp-index 2 (0-9)

白天

日出
06:28
中午
12:00
日落
17:33 (7:47)

小工具

你想在你的网站上有一个关于Moorea Airport的当前航空天气(METAR)的小部件吗?

显示HTML代码
报告变更